広州 の空港の天気 - METARとTAF

広州白雲国際空港 ( ZGGG / CAN ) - 中国 広東省広州市
飛行場実況気象(Metar)
観測時間01/17 03:30 CST (01/16 19:30 UTC)
風向・風速北北西 4m/s
視程8000m
天気現象
全天の8割程度の雲 雲底高度 790m
気温15℃
湿度77%
気圧1021hPa
METARZGGG 161930Z 33004MPS 8000 BKN026 15/11 Q1021 NOSIG
過去の天気等 Google飛行場航空写真 Wunderground天気予報

過去48時間のMETAR

飛行場予報(TAF)
発表時間: 1/16 23:05 CST (1/16 15:05 UTC)
予報対象時間: 17日2時 CST ~ 18日2時 CST
風向・風速北 5m/s
視程8000m
全天の8割程度の雲 雲底高度 1220m
TAF ZGGG 161505Z 1618/1718 35005MPS 8000 BKN040 TX19/1707Z TN13/1622Z